createdAt,value
2023-01-11T00:00:19.952Z,44.74
2023-01-11T00:02:56.238Z,44.81
2023-01-11T00:05:28.964Z,44.88
2023-01-11T00:07:56.220Z,44.94
2023-01-11T00:10:26.396Z,44.91
2023-01-11T00:12:53.115Z,44.77
2023-01-11T00:15:25.113Z,44.93
2023-01-11T00:17:55.505Z,44.90
2023-01-11T00:20:25.337Z,44.86
2023-01-11T00:22:58.043Z,45.01
2023-01-11T00:25:31.452Z,44.92
2023-01-11T00:27:58.224Z,44.82
2023-01-11T00:30:24.981Z,44.99
2023-01-11T00:32:58.890Z,44.89
2023-01-11T00:35:26.687Z,44.99
2023-01-11T00:37:56.168Z,44.84
2023-01-11T00:40:29.025Z,44.87
2023-01-11T00:42:58.899Z,44.79
2023-01-11T00:45:29.289Z,44.87
2023-01-11T00:47:59.276Z,44.87
2023-01-11T00:50:28.180Z,44.72
2023-01-11T00:52:58.812Z,44.92
2023-01-11T00:55:28.790Z,44.95
2023-01-11T00:57:59.531Z,45.11
2023-01-11T01:00:32.625Z,44.83
2023-01-11T01:03:02.479Z,44.91
2023-01-11T01:05:32.944Z,44.89
2023-01-11T01:07:59.653Z,44.99
2023-01-11T01:10:29.811Z,44.84
2023-01-11T01:13:02.660Z,44.88
2023-01-11T01:15:35.807Z,44.88
2023-01-11T01:18:02.706Z,44.81
2023-01-11T01:20:34.620Z,44.75
2023-01-11T01:23:04.599Z,44.84
2023-01-11T01:25:31.356Z,44.63
2023-01-11T01:28:01.554Z,44.57
2023-01-11T01:30:28.257Z,44.54
2023-01-11T01:32:57.642Z,44.48
2023-01-11T01:35:27.303Z,44.66
2023-01-11T01:37:53.916Z,44.59
2023-01-11T01:40:23.742Z,44.59
2023-01-11T01:42:54.596Z,44.48
2023-01-11T01:45:30.243Z,44.71
2023-01-11T01:48:02.163Z,44.56
2023-01-11T01:50:40.614Z,44.55
2023-01-11T01:53:15.989Z,44.53
2023-01-11T01:55:49.185Z,44.49
2023-01-11T01:58:20.935Z,44.50
2023-01-11T02:00:47.923Z,44.44
2023-01-11T02:03:20.817Z,44.47
2023-01-11T02:05:54.756Z,44.52
2023-01-11T02:08:40.723Z,44.42
2023-01-11T02:11:14.706Z,44.51
2023-01-11T02:13:44.949Z,44.51
2023-01-11T02:16:14.207Z,44.34
2023-01-11T02:18:43.605Z,44.38
2023-01-11T02:21:21.997Z,44.38
2023-01-11T02:24:20.950Z,44.37
2023-01-11T02:27:03.089Z,44.37
2023-01-11T02:30:07.188Z,44.35
2023-01-11T02:33:05.131Z,44.32
2023-01-11T02:35:49.784Z,44.41
2023-01-11T02:38:22.426Z,44.39
2023-01-11T02:41:03.967Z,44.27
2023-01-11T02:44:05.965Z,44.35
2023-01-11T02:46:55.119Z,44.28
2023-01-11T02:49:35.541Z,44.30
2023-01-11T02:52:07.832Z,44.42
2023-01-11T02:54:39.907Z,44.25
2023-01-11T02:57:12.099Z,44.28
2023-01-11T02:59:42.532Z,44.36
2023-01-11T03:02:13.172Z,44.35
2023-01-11T03:04:43.445Z,44.31
2023-01-11T03:07:45.606Z,44.30
2023-01-11T03:10:39.531Z,44.33
2023-01-11T03:13:49.942Z,44.26
2023-01-11T03:16:43.666Z,44.24
2023-01-11T03:19:42.780Z,44.26
2023-01-11T03:22:23.573Z,44.34
2023-01-11T03:25:20.593Z,44.28
2023-01-11T03:28:19.685Z,44.29
2023-01-11T03:30:51.954Z,44.27
2023-01-11T03:33:32.779Z,44.21
2023-01-11T03:36:18.588Z,44.26
2023-01-11T03:39:03.757Z,44.24
2023-01-11T03:41:36.186Z,44.29
2023-01-11T03:44:13.175Z,44.27
2023-01-11T03:46:58.168Z,44.27
2023-01-11T03:49:46.174Z,44.32
2023-01-11T03:52:25.286Z,44.32
2023-01-11T03:54:56.112Z,44.27
2023-01-11T03:57:33.974Z,44.27
2023-01-11T04:00:11.667Z,44.19
2023-01-11T04:02:44.863Z,44.25
2023-01-11T04:05:12.425Z,44.28
2023-01-11T04:07:39.177Z,44.38
2023-01-11T04:10:06.496Z,44.29
2023-01-11T04:12:33.329Z,44.32
2023-01-11T04:15:00.239Z,44.27
2023-01-11T04:17:30.434Z,44.23
2023-01-11T04:20:00.655Z,44.18
2023-01-11T04:22:33.910Z,44.39
2023-01-11T04:25:00.645Z,44.31
2023-01-11T04:27:27.407Z,44.44
2023-01-11T04:29:56.942Z,44.19
2023-01-11T04:32:23.587Z,44.23
2023-01-11T04:34:50.356Z,44.39
2023-01-11T04:37:17.129Z,44.18
2023-01-11T04:39:46.771Z,44.16
2023-01-11T04:42:16.727Z,44.16
2023-01-11T04:44:47.549Z,44.27
2023-01-11T04:47:17.891Z,44.22
2023-01-11T04:49:45.791Z,44.21
2023-01-11T04:52:17.590Z,44.12
2023-01-11T04:54:47.518Z,44.20
2023-01-11T04:57:18.810Z,44.25
2023-01-11T04:59:49.175Z,44.30
2023-01-11T05:02:16.072Z,44.29
2023-01-11T05:04:43.087Z,44.30
2023-01-11T05:07:12.971Z,44.26
2023-01-11T05:09:42.527Z,44.38
2023-01-11T05:12:17.971Z,44.39
2023-01-11T05:14:50.416Z,44.30
2023-01-11T05:17:26.419Z,44.32
2023-01-11T05:19:56.132Z,44.33
2023-01-11T05:22:25.769Z,44.28
2023-01-11T05:24:53.196Z,44.31
2023-01-11T05:27:38.883Z,44.32
2023-01-11T05:30:09.843Z,44.44
2023-01-11T05:32:39.924Z,44.39
2023-01-11T05:35:11.332Z,44.40
2023-01-11T05:37:42.057Z,44.53
2023-01-11T05:40:09.832Z,44.39
2023-01-11T05:42:42.664Z,44.38
2023-01-11T05:45:12.212Z,44.40
2023-01-11T05:47:41.867Z,44.31
2023-01-11T05:50:31.676Z,44.62
2023-01-11T05:52:58.456Z,44.83
2023-01-11T05:55:28.598Z,44.96
2023-01-11T05:58:00.904Z,44.69
2023-01-11T06:00:36.825Z,44.53
2023-01-11T06:03:07.229Z,44.56
2023-01-11T06:05:40.391Z,44.53
2023-01-11T06:08:10.529Z,44.68
2023-01-11T06:10:37.386Z,45.12
2023-01-11T06:13:04.663Z,45.48
2023-01-11T06:15:36.285Z,44.98
2023-01-11T06:18:03.115Z,44.60
2023-01-11T06:20:36.090Z,44.57
2023-01-11T06:23:02.601Z,44.50
2023-01-11T06:25:32.075Z,44.42
2023-01-11T06:27:59.936Z,44.36
2023-01-11T06:30:29.727Z,44.33
2023-01-11T06:32:56.574Z,44.45
2023-01-11T06:35:25.631Z,44.56
2023-01-11T06:37:55.651Z,44.39
2023-01-11T06:40:25.404Z,44.38
2023-01-11T06:42:55.624Z,44.55
2023-01-11T06:45:25.491Z,44.57
2023-01-11T06:47:55.495Z,44.83
2023-01-11T06:50:25.934Z,44.50
2023-01-11T06:53:00.390Z,44.55
2023-01-11T06:55:31.522Z,44.64
2023-01-11T06:57:58.373Z,45.05
2023-01-11T07:00:28.266Z,44.95
2023-01-11T07:03:01.586Z,45.29
2023-01-11T07:05:28.296Z,45.28
2023-01-11T07:07:57.856Z,45.25
2023-01-11T07:10:28.401Z,45.57
2023-01-11T07:12:55.772Z,45.63
2023-01-11T07:15:22.963Z,45.68
2023-01-11T07:17:55.221Z,45.74
2023-01-11T07:20:26.045Z,45.73
2023-01-11T07:22:56.387Z,45.73
2023-01-11T07:25:26.676Z,45.98
2023-01-11T07:28:01.298Z,45.90
2023-01-11T07:30:30.721Z,45.91
2023-01-11T07:33:02.265Z,45.85
2023-01-11T07:35:32.611Z,45.86
2023-01-11T07:38:00.031Z,45.72
2023-01-11T07:40:27.680Z,45.85
2023-01-11T07:42:58.132Z,45.83
2023-01-11T07:45:44.402Z,45.30
2023-01-11T07:48:19.573Z,45.35
2023-01-11T07:50:48.032Z,45.33
2023-01-11T07:53:15.510Z,45.10
2023-01-11T07:55:42.758Z,43.04
2023-01-11T07:58:13.353Z,43.44
2023-01-11T08:00:43.642Z,44.35
2023-01-11T08:03:14.225Z,44.48
2023-01-11T08:05:53.260Z,44.57
2023-01-11T08:08:25.925Z,44.52
2023-01-11T08:10:52.575Z,44.73
2023-01-11T08:13:19.510Z,44.87
2023-01-11T08:15:46.311Z,44.87
2023-01-11T08:18:13.316Z,44.86
2023-01-11T08:20:40.712Z,44.89
2023-01-11T08:23:10.433Z,44.84
2023-01-11T08:25:40.795Z,44.79
2023-01-11T08:28:10.477Z,44.70
2023-01-11T08:30:40.909Z,44.68
2023-01-11T08:33:13.508Z,44.66
2023-01-11T08:35:43.670Z,44.66
2023-01-11T08:38:10.439Z,44.65
2023-01-11T08:40:45.797Z,44.66
2023-01-11T08:43:15.797Z,44.55
2023-01-11T08:45:53.776Z,44.60
2023-01-11T08:48:29.397Z,44.55
2023-01-11T08:50:58.741Z,44.50
2023-01-11T08:53:28.815Z,44.49
2023-01-11T08:55:55.702Z,44.48
2023-01-11T08:58:22.525Z,44.46
2023-01-11T09:00:49.374Z,44.18
2023-01-11T09:03:19.002Z,43.79
2023-01-11T09:05:45.838Z,43.42
2023-01-11T09:08:15.653Z,43.07
2023-01-11T09:10:43.749Z,42.70
2023-01-11T09:13:16.728Z,42.47
2023-01-11T09:15:46.721Z,42.22
2023-01-11T09:18:15.127Z,41.89
2023-01-11T09:20:50.542Z,41.51
2023-01-11T09:23:17.556Z,41.00
2023-01-11T09:25:50.336Z,40.47
2023-01-11T09:28:17.206Z,40.46
2023-01-11T09:30:47.077Z,40.85
2023-01-11T09:33:16.350Z,41.26
2023-01-11T09:35:43.139Z,41.55
2023-01-11T09:38:11.040Z,40.66
2023-01-11T09:41:18.200Z,40.87
2023-01-11T09:43:57.979Z,41.46
2023-01-11T09:46:28.991Z,41.47
2023-01-11T09:49:00.605Z,41.53
2023-01-11T09:51:40.773Z,41.64
2023-01-11T09:54:23.986Z,41.71
2023-01-11T09:57:19.968Z,41.83
2023-01-11T10:00:01.152Z,41.91
2023-01-11T10:02:50.638Z,42.03
2023-01-11T10:05:38.849Z,42.05
2023-01-11T10:18:28.492Z,42.06
2023-01-11T10:18:33.919Z,42.14
2023-01-11T10:20:36.101Z,42.26
2023-01-11T10:23:17.564Z,42.45
2023-01-11T10:25:48.061Z,42.58
2023-01-11T10:28:23.178Z,42.70
2023-01-11T10:30:56.347Z,42.78
2023-01-11T10:33:42.001Z,42.90
2023-01-11T10:36:42.730Z,42.42
2023-01-11T10:39:32.830Z,42.08
2023-01-11T10:42:21.779Z,41.41
2023-01-11T10:45:05.787Z,41.80
2023-01-11T10:47:50.483Z,41.93
2023-01-11T10:51:01.812Z,41.99
2023-01-11T10:53:54.421Z,42.29
2023-01-11T10:57:03.146Z,42.44
2023-01-11T11:00:03.248Z,42.53
2023-01-11T11:02:48.339Z,42.64
2023-01-11T11:05:43.157Z,42.70
2023-01-11T11:08:21.780Z,42.81
2023-01-11T11:11:07.916Z,42.98
2023-01-11T11:13:57.095Z,43.13
2023-01-11T11:16:41.766Z,43.27
2023-01-11T11:19:18.682Z,43.38
2023-01-11T11:21:46.607Z,43.49
2023-01-11T11:24:52.317Z,43.58
2023-01-11T11:27:40.297Z,43.65
2023-01-11T11:30:14.136Z,43.78
2023-01-11T11:32:52.908Z,44.04
2023-01-11T11:35:39.828Z,44.18
2023-01-11T11:38:25.190Z,44.32
2023-01-11T11:41:10.712Z,44.66
2023-01-11T11:43:42.060Z,44.68
2023-01-11T11:46:19.500Z,44.55
2023-01-11T11:49:12.628Z,44.71
2023-01-11T11:51:41.365Z,44.30
2023-01-11T11:54:22.758Z,44.68
2023-01-11T11:56:50.735Z,45.04
2023-01-11T11:59:22.681Z,45.06
2023-01-11T12:01:57.999Z,45.16
2023-01-11T12:04:52.062Z,45.22
2023-01-11T12:07:36.076Z,45.08
2023-01-11T12:10:21.320Z,45.60
2023-01-11T12:12:50.169Z,45.43
2023-01-11T12:15:22.913Z,45.36
2023-01-11T12:17:53.782Z,45.30
2023-01-11T12:20:26.554Z,45.24
2023-01-11T12:23:31.218Z,45.14
2023-01-11T12:26:21.262Z,45.01
2023-01-11T12:29:00.333Z,44.83
2023-01-11T12:31:49.336Z,44.83
2023-01-11T12:34:40.292Z,45.31
2023-01-11T12:37:15.907Z,44.98
2023-01-11T12:40:03.922Z,45.05
2023-01-11T12:42:42.516Z,44.40
2023-01-11T12:45:37.905Z,44.05
2023-01-11T12:48:27.245Z,44.02
2023-01-11T12:51:31.407Z,43.96
2023-01-11T12:54:07.936Z,43.88
2023-01-11T12:57:02.824Z,43.76
2023-01-11T13:00:07.874Z,44.05
2023-01-11T13:03:09.109Z,44.04
2023-01-11T13:05:53.865Z,44.10
2023-01-11T13:08:48.605Z,44.15
2023-01-11T13:11:40.827Z,44.36
2023-01-11T13:14:22.856Z,44.21
2023-01-11T13:17:20.602Z,44.31
2023-01-11T13:20:09.840Z,44.50
2023-01-11T13:22:47.901Z,44.54
2023-01-11T13:25:25.671Z,44.57
2023-01-11T13:27:57.698Z,44.66
2023-01-11T13:30:32.179Z,44.61
2023-01-11T13:33:14.162Z,44.69
2023-01-11T13:36:01.805Z,44.64
2023-01-11T13:38:41.711Z,44.67
2023-01-11T13:41:13.112Z,44.75
2023-01-11T13:43:46.316Z,44.75
2023-01-11T13:46:35.092Z,44.80
2023-01-11T13:49:14.592Z,44.76
2023-01-11T13:52:11.262Z,44.77
2023-01-11T13:54:46.094Z,44.88
2023-01-11T13:57:35.071Z,44.86
2023-01-11T14:00:15.532Z,44.90
2023-01-11T14:03:11.081Z,44.84
2023-01-11T14:05:48.291Z,44.85
2023-01-11T14:08:37.352Z,44.81
2023-01-11T14:11:33.476Z,44.88
2023-01-11T14:14:21.811Z,44.85
2023-01-11T14:17:04.604Z,44.71
2023-01-11T14:19:39.486Z,44.74
2023-01-11T14:22:26.828Z,44.74
2023-01-11T14:25:13.809Z,44.75
2023-01-11T14:27:59.103Z,44.80
2023-01-11T14:30:49.060Z,45.35
2023-01-11T14:33:37.157Z,45.82
2023-01-11T14:36:34.398Z,45.36
2023-01-11T14:39:27.960Z,45.45
2023-01-11T14:42:30.746Z,45.30
2023-01-11T14:45:07.408Z,45.07
2023-01-11T14:47:58.580Z,45.11
2023-01-11T14:50:44.330Z,45.32
2023-01-11T14:53:27.163Z,45.21
2023-01-11T14:55:57.281Z,45.00
2023-01-11T14:58:55.947Z,45.05
2023-01-11T15:01:22.864Z,45.31
2023-01-11T15:03:59.448Z,45.18
2023-01-11T15:06:31.445Z,45.02
2023-01-11T15:09:00.855Z,44.78
2023-01-11T15:11:40.935Z,44.61
2023-01-11T15:14:25.293Z,44.57
2023-01-11T15:16:54.798Z,44.52
2023-01-11T15:19:35.044Z,44.51
2023-01-11T15:22:22.582Z,44.43
2023-01-11T15:24:57.341Z,44.45
2023-01-11T15:27:39.634Z,44.45
2023-01-11T15:30:35.736Z,44.50
2023-01-11T15:33:17.755Z,41.12
2023-01-11T15:35:56.773Z,41.87
2023-01-11T15:38:45.499Z,42.97
2023-01-11T15:41:38.503Z,43.55
2023-01-11T15:44:34.513Z,43.73
2023-01-11T15:47:30.500Z,43.82
2023-01-11T15:50:21.530Z,43.80
2023-01-11T15:53:26.939Z,43.87
2023-01-11T15:56:18.083Z,43.78
2023-01-11T15:59:02.889Z,43.06
2023-01-11T16:01:31.099Z,43.51
2023-01-11T16:04:36.620Z,43.83
2023-01-11T16:07:35.728Z,44.19
2023-01-11T16:10:11.521Z,44.49
2023-01-11T16:13:05.059Z,44.36
2023-01-11T16:16:07.170Z,44.58
2023-01-11T16:19:20.297Z,44.61
2023-01-11T16:21:51.677Z,44.62
2023-01-11T16:24:22.412Z,44.74
2023-01-11T16:27:04.452Z,45.01
2023-01-11T16:29:38.532Z,45.20
2023-01-11T16:32:19.805Z,45.30
2023-01-11T16:34:52.856Z,45.35
2023-01-11T16:37:25.227Z,45.39
2023-01-11T16:40:07.934Z,45.54
2023-01-11T16:43:11.812Z,45.57
2023-01-11T16:45:45.942Z,45.61
2023-01-11T16:48:22.089Z,45.73
2023-01-11T16:51:09.059Z,45.93
2023-01-11T16:53:43.531Z,46.26
2023-01-11T16:56:23.449Z,46.27
2023-01-11T16:59:23.857Z,46.21
2023-01-11T17:02:00.241Z,46.35
2023-01-11T17:04:31.998Z,46.40
2023-01-11T17:07:24.999Z,46.71
2023-01-11T17:09:54.959Z,46.59
2023-01-11T17:12:31.401Z,46.63
2023-01-11T17:15:26.096Z,46.61
2023-01-11T17:17:55.474Z,46.72
2023-01-11T17:20:30.471Z,46.60
2023-01-11T17:23:00.675Z,46.48
2023-01-11T17:25:44.086Z,46.61
2023-01-11T17:28:18.976Z,46.53
2023-01-11T17:30:48.459Z,46.51
2023-01-11T17:33:46.908Z,46.46
2023-01-11T17:36:16.483Z,45.93
2023-01-11T17:38:49.616Z,45.17
2023-01-11T17:41:17.923Z,44.87
2023-01-11T17:43:44.894Z,45.26
2023-01-11T17:46:27.539Z,45.47
2023-01-11T17:48:59.544Z,46.22
2023-01-11T17:51:34.769Z,46.82
2023-01-11T17:54:01.700Z,46.97
2023-01-11T17:57:01.209Z,46.62
2023-01-11T17:59:29.896Z,46.79
2023-01-11T18:02:21.141Z,46.59
2023-01-11T18:05:03.252Z,46.48
2023-01-11T18:07:33.313Z,46.77
2023-01-11T18:10:03.114Z,46.31
2023-01-11T18:12:37.957Z,46.01
2023-01-11T18:15:06.828Z,46.23
2023-01-11T18:17:41.928Z,46.30
2023-01-11T18:20:17.723Z,46.32
2023-01-11T18:22:56.658Z,46.32
2023-01-11T18:25:32.071Z,46.24
2023-01-11T18:28:35.871Z,46.22
2023-01-11T18:31:06.472Z,46.22
2023-01-11T18:33:34.483Z,46.18
2023-01-11T18:36:04.120Z,46.08
2023-01-11T18:38:35.762Z,46.03
2023-01-11T18:41:14.711Z,46.04
2023-01-11T18:43:47.604Z,45.98
2023-01-11T18:46:17.813Z,45.90
2023-01-11T18:48:50.782Z,45.91
2023-01-11T18:51:38.936Z,45.88
2023-01-11T18:54:12.046Z,45.84
2023-01-11T18:56:42.188Z,45.83
2023-01-11T18:59:09.462Z,45.74
2023-01-11T19:01:56.167Z,45.74
2023-01-11T19:04:28.483Z,45.78
2023-01-11T19:06:58.832Z,45.70
2023-01-11T19:09:25.687Z,45.71
2023-01-11T19:11:52.593Z,45.70
2023-01-11T19:14:25.376Z,45.62
2023-01-11T19:16:54.119Z,45.68
2023-01-11T19:19:25.883Z,45.58
2023-01-11T19:21:55.566Z,45.62
2023-01-11T19:24:24.966Z,45.74
2023-01-11T19:26:51.933Z,45.86
2023-01-11T19:29:21.333Z,45.79
2023-01-11T19:31:51.317Z,45.44
2023-01-11T19:34:24.300Z,45.41
2023-01-11T19:36:51.862Z,45.75
2023-01-11T19:39:19.133Z,45.78
2023-01-11T19:41:49.669Z,45.69
2023-01-11T19:44:16.644Z,45.75
2023-01-11T19:46:47.001Z,45.81
2023-01-11T19:49:18.421Z,45.60
2023-01-11T19:51:45.260Z,45.47
2023-01-11T19:54:15.947Z,45.64
2023-01-11T19:56:46.010Z,45.76
2023-01-11T19:59:19.244Z,45.86
2023-01-11T20:01:52.274Z,45.92
2023-01-11T20:04:22.464Z,45.76
2023-01-11T20:06:49.432Z,45.80
2023-01-11T20:09:18.071Z,45.90
2023-01-11T20:11:48.732Z,45.88
2023-01-11T20:14:25.641Z,45.81
2023-01-11T20:16:55.173Z,45.84
2023-01-11T20:19:22.091Z,45.84
2023-01-11T20:21:52.402Z,45.87
2023-01-11T20:24:19.310Z,45.84
2023-01-11T20:26:46.708Z,45.76
2023-01-11T20:29:13.606Z,45.85
2023-01-11T20:31:44.180Z,45.74
2023-01-11T20:34:12.011Z,46.01
2023-01-11T20:36:42.773Z,46.02
2023-01-11T20:39:10.189Z,46.28
2023-01-11T20:41:37.401Z,46.26
2023-01-11T20:44:06.724Z,46.49
2023-01-11T20:46:37.278Z,46.33
2023-01-11T20:49:08.283Z,46.32
2023-01-11T20:51:36.591Z,46.24
2023-01-11T20:54:05.769Z,46.32
2023-01-11T20:56:32.634Z,46.28
2023-01-11T20:59:02.925Z,46.32
2023-01-11T21:01:32.426Z,46.26
2023-01-11T21:04:07.932Z,46.23
2023-01-11T21:06:37.781Z,46.22
2023-01-11T21:09:08.934Z,46.13
2023-01-11T21:11:36.290Z,46.17
2023-01-11T21:14:05.981Z,46.07
2023-01-11T21:16:35.633Z,46.10
2023-01-11T21:19:05.172Z,46.01
2023-01-11T21:21:34.350Z,46.02
2023-01-11T21:24:03.160Z,45.98
2023-01-11T21:26:33.454Z,45.94
2023-01-11T21:29:05.279Z,46.08
2023-01-11T21:31:35.272Z,46.16
2023-01-11T21:34:06.419Z,45.90
2023-01-11T21:36:33.567Z,45.93
2023-01-11T21:39:05.148Z,45.97
2023-01-11T21:41:33.598Z,45.93
2023-01-11T21:44:03.946Z,45.87
2023-01-11T21:46:34.449Z,45.91
2023-01-11T21:49:01.272Z,45.82
2023-01-11T21:51:31.524Z,45.82
2023-01-11T21:54:06.230Z,45.78
2023-01-11T21:56:36.236Z,45.83
2023-01-11T21:59:04.192Z,45.77
2023-01-11T22:01:34.005Z,45.82
2023-01-11T22:04:05.515Z,45.67
2023-01-11T22:06:39.277Z,45.75
2023-01-11T22:09:08.358Z,45.87
2023-01-11T22:11:35.199Z,45.62
2023-01-11T22:14:03.708Z,45.72
2023-01-11T22:16:31.611Z,45.68
2023-01-11T22:18:59.600Z,45.82
2023-01-11T22:21:30.197Z,45.87
2023-01-11T22:24:02.359Z,45.85
2023-01-11T22:26:29.336Z,45.85
2023-01-11T22:28:56.654Z,45.77
2023-01-11T22:31:30.532Z,45.76
2023-01-11T22:34:02.402Z,45.76
2023-01-11T22:36:33.001Z,45.69
2023-01-11T22:39:06.213Z,45.88
2023-01-11T22:41:33.339Z,45.79
2023-01-11T22:44:03.639Z,45.76
2023-01-11T22:46:33.193Z,45.89
2023-01-11T22:49:00.117Z,45.79
2023-01-11T22:51:29.722Z,45.83
2023-01-11T22:53:57.264Z,45.78
2023-01-11T22:56:27.956Z,45.74
2023-01-11T22:59:03.946Z,45.68
2023-01-11T23:01:34.892Z,45.98
2023-01-11T23:04:09.159Z,45.97
2023-01-11T23:06:46.370Z,45.85
2023-01-11T23:09:16.346Z,45.81
2023-01-11T23:11:44.130Z,45.83
2023-01-11T23:14:13.434Z,45.75
2023-01-11T23:16:44.247Z,45.89
2023-01-11T23:19:15.020Z,45.68
2023-01-11T23:21:46.288Z,45.76
2023-01-11T23:24:14.961Z,45.79
2023-01-11T23:26:48.575Z,45.62
2023-01-11T23:29:18.160Z,45.60
2023-01-11T23:31:45.684Z,45.61
2023-01-11T23:34:19.137Z,45.61
2023-01-11T23:36:50.775Z,45.66
2023-01-11T23:39:23.476Z,45.75
2023-01-11T23:41:55.716Z,45.63
2023-01-11T23:44:26.057Z,45.70
2023-01-11T23:46:56.268Z,45.62
2023-01-11T23:49:26.851Z,45.82
2023-01-11T23:51:55.338Z,45.74
2023-01-11T23:54:28.616Z,45.74
2023-01-11T23:56:57.190Z,45.57
2023-01-11T23:59:24.428Z,45.54
